Time;durP1;ratioP1;P1;durP2;ratioP2;P2;SDS_P1;SDS_P2;PMS_P1;PMS_P2;Temp;Humidity;BMP_temperature;BMP_pressure;BME280_temperature;BME280_humidity;BME280_pressure;Samples;Min_cycle;Max_cycle;Signal;HPM_P1;HPM_P2
2022/08/24 00:01:08;;;;;;;7.25;2.47;;;20.10;99.90;;;;;;5062753;28;20032;-84
2022/08/24 00:03:34;;;;;;;5.30;2.35;;;20.00;99.90;;;;;;5069804;28;20025;-83
2022/08/24 00:06:00;;;;;;;10.00;2.97;;;20.00;99.90;;;;;;5056229;28;20533;-84
2022/08/24 00:08:27;;;;;;;7.25;2.00;;;20.00;99.90;;;;;;5062284;28;20024;-84
2022/08/24 00:10:53;;;;;;;5.80;2.20;;;20.10;99.90;;;;;;5064637;28;20124;-84
2022/08/24 00:13:19;;;;;;;9.05;2.47;;;20.00;99.90;;;;;;5067681;28;20099;-84
2022/08/24 00:15:46;;;;;;;11.68;2.25;;;20.00;99.90;;;;;;5065358;28;20029;-84
2022/08/24 00:18:12;;;;;;;7.97;2.22;;;20.10;99.90;;;;;;5068399;28;20127;-84
2022/08/24 00:20:38;;;;;;;5.82;2.60;;;20.10;99.90;;;;;;5065478;28;20024;-85
2022/08/24 00:23:04;;;;;;;5.95;2.30;;;20.10;99.90;;;;;;5067186;28;20021;-85
2022/08/24 00:25:30;;;;;;;5.68;2.70;;;20.10;99.90;;;;;;5063455;28;20024;-84
2022/08/24 00:27:56;;;;;;;4.80;2.42;;;20.10;99.90;;;;;;5065002;28;20028;-84
2022/08/24 00:30:26;;;;;;;7.60;2.60;;;20.00;99.90;;;;;;5056883;28;20048;-84
2022/08/24 00:32:53;;;;;;;5.70;2.70;;;20.10;99.90;;;;;;5062794;28;20040;-84
2022/08/24 00:35:20;;;;;;;6.38;2.58;;;20.10;99.90;;;;;;5068049;28;20036;-85
2022/08/24 00:37:48;;;;;;;3.17;2.30;;;20.00;99.90;;;;;;5066218;28;20086;-84
2022/08/24 00:40:26;;;;;;;4.88;1.90;;;20.00;99.90;;;;;;5063074;28;20031;-84
2022/08/24 00:42:54;;;;;;;9.10;2.80;;;20.00;99.90;;;;;;5066877;28;20115;-85
2022/08/24 00:45:20;;;;;;;3.45;2.28;;;20.10;99.90;;;;;;5065887;28;20421;-84
2022/08/24 00:47:57;;;;;;;13.77;2.63;;;20.00;99.90;;;;;;5066601;28;20063;-84
2022/08/24 00:50:47;;;;;;;7.50;2.50;;;19.90;99.90;;;;;;5066864;28;20150;-85
2022/08/24 00:53:44;;;;;;;6.65;2.63;;;19.90;99.90;;;;;;5068047;28;20035;-84
2022/08/24 00:56:18;;;;;;;6.13;2.50;;;19.80;99.90;;;;;;5041309;28;20037;-85
2022/08/24 00:58:52;;;;;;;5.55;2.40;;;19.70;99.90;;;;;;5065599;28;20094;-84
2022/08/24 01:01:20;;;;;;;3.95;2.00;;;19.60;99.90;;;;;;5063145;28;20499;-84
2022/08/24 01:03:46;;;;;;;4.90;2.10;;;19.50;99.90;;;;;;5066021;28;20031;-84
2022/08/24 01:06:12;;;;;;;8.93;2.47;;;19.50;99.90;;;;;;5055033;28;20017;-84
2022/08/24 01:08:39;;;;;;;6.82;2.47;;;19.40;99.90;;;;;;5063507;28;20021;-84
2022/08/24 01:11:11;;;;;;;6.68;2.15;;;19.40;99.90;;;;;;5059530;28;20029;-84
2022/08/24 01:13:38;;;;;;;10.15;2.70;;;19.40;99.90;;;;;;5064442;28;20025;-84
2022/08/24 01:16:07;;;;;;;6.25;3.33;;;19.50;99.90;;;;;;5063196;28;20866;-83
2022/08/24 01:18:51;;;;;;;4.82;2.33;;;19.50;99.90;;;;;;5064825;28;20040;-83
2022/08/24 01:21:22;;;;;;;9.63;3.05;;;19.50;99.90;;;;;;5057466;28;20029;-83
2022/08/24 01:23:51;;;;;;;6.47;2.63;;;19.60;99.90;;;;;;5063589;28;20085;-84
2022/08/24 01:26:29;;;;;;;6.50;3.15;;;19.60;99.90;;;;;;5054729;28;20053;-83
2022/08/24 01:29:01;;;;;;;10.40;2.78;;;19.70;99.90;;;;;;5064251;28;20351;-84
2022/08/24 01:31:26;;;;;;;7.75;3.00;;;19.60;99.90;;;;;;5051093;28;20045;-84
2022/08/24 01:33:54;;;;;;;9.60;2.60;;;19.60;99.90;;;;;;5058687;28;20513;-83
2022/08/24 01:36:48;;;;;;;7.53;2.70;;;19.60;99.90;;;;;;5057033;28;20048;-84
2022/08/24 01:39:36;;;;;;;6.53;2.40;;;19.60;99.90;;;;;;5060995;28;20029;-84
2022/08/24 01:42:02;;;;;;;3.58;2.40;;;19.60;99.90;;;;;;5058952;28;20475;-83
2022/08/24 01:44:32;;;;;;;4.70;2.50;;;19.60;99.90;;;;;;5062163;28;20104;-84
2022/08/24 01:46:58;;;;;;;11.68;3.10;;;19.60;99.90;;;;;;5064556;28;20061;-84
2022/08/24 01:49:27;;;;;;;9.50;2.60;;;19.60;99.90;;;;;;5058478;28;20106;-84
2022/08/24 01:51:54;;;;;;;6.05;2.75;;;19.60;99.90;;;;;;5065740;28;20488;-84
2022/08/24 01:54:19;;;;;;;4.90;2.38;;;19.60;99.90;;;;;;5065536;28;20028;-84
2022/08/24 01:56:45;;;;;;;3.95;2.60;;;19.50;99.90;;;;;;5059344;28;20527;-83
2022/08/24 01:59:11;;;;;;;6.22;2.60;;;19.50;99.90;;;;;;5063212;28;20029;-83
2022/08/24 02:01:45;;;;;;;8.90;2.80;;;19.50;99.90;;;;;;5058613;28;20025;-84
2022/08/24 02:04:11;;;;;;;8.55;2.72;;;19.50;99.90;;;;;;5063689;28;20024;-83
2022/08/24 02:06:37;;;;;;;5.00;2.53;;;19.50;99.90;;;;;;5061099;28;20495;-84
2022/08/24 02:09:04;;;;;;;15.23;3.55;;;19.40;99.90;;;;;;5066817;28;20029;-84
2022/08/24 02:11:30;;;;;;;5.65;3.05;;;19.40;99.90;;;;;;5062458;28;20028;-84
2022/08/24 02:13:56;;;;;;;12.10;2.67;;;19.40;99.90;;;;;;5064548;28;20107;-84
2022/08/24 02:16:22;;;;;;;4.63;2.80;;;19.40;99.90;;;;;;5062147;28;20040;-84
2022/08/24 02:18:48;;;;;;;5.80;2.58;;;19.40;99.90;;;;;;5065724;28;20477;-83
2022/08/24 02:21:15;;;;;;;6.63;2.58;;;19.40;99.90;;;;;;5058927;28;20055;-84
2022/08/24 02:23:42;;;;;;;8.18;2.55;;;19.50;99.90;;;;;;5065229;28;20051;-84
2022/08/24 02:26:10;;;;;;;5.35;2.95;;;19.40;99.90;;;;;;5069408;28;20033;-84
2022/08/24 02:28:36;;;;;;;3.22;2.42;;;19.40;99.90;;;;;;5066402;28;20021;-84
2022/08/24 02:31:04;;;;;;;6.78;2.50;;;19.40;99.90;;;;;;5057796;28;20063;-85
2022/08/24 02:33:30;;;;;;;6.10;3.05;;;19.40;99.90;;;;;;5069044;28;20372;-84
2022/08/24 02:35:56;;;;;;;4.57;2.53;;;19.40;99.90;;;;;;5059636;28;20408;-84
2022/08/24 02:38:22;;;;;;;3.90;2.35;;;19.40;99.90;;;;;;5064091;28;20041;-84
2022/08/24 02:40:48;;;;;;;3.78;2.15;;;19.40;99.90;;;;;;5051428;28;20419;-84
2022/08/24 02:43:14;;;;;;;1.90;1.80;;;19.30;99.90;;;;;;5058530;28;20029;-84
2022/08/24 02:45:42;;;;;;;10.05;2.70;;;19.30;99.90;;;;;;5069481;28;20196;-84
2022/08/24 02:48:09;;;;;;;7.22;2.20;;;19.30;99.90;;;;;;5068523;28;20032;-84
2022/08/24 02:50:43;;;;;;;4.97;2.40;;;19.20;99.90;;;;;;5063583;28;20024;-84
2022/08/24 02:53:12;;;;;;;2.72;2.10;;;19.10;99.90;;;;;;5060639;28;20056;-84
2022/08/24 02:55:40;;;;;;;3.72;2.47;;;19.10;99.90;;;;;;5066919;28;20052;-84
2022/08/24 02:58:06;;;;;;;6.75;3.00;;;19.00;99.90;;;;;;5065575;28;20055;-84
2022/08/24 03:00:32;;;;;;;5.05;2.47;;;18.80;99.90;;;;;;5066929;28;20074;-84
2022/08/24 03:02:58;;;;;;;7.97;2.90;;;18.70;99.90;;;;;;5064670;28;20389;-84
2022/08/24 03:05:24;;;;;;;6.30;2.70;;;18.60;99.90;;;;;;5067737;28;20548;-84
2022/08/24 03:07:51;;;;;;;4.55;2.42;;;18.50;99.90;;;;;;5064865;28;20070;-84
2022/08/24 03:10:17;;;;;;;6.00;2.83;;;18.40;99.90;;;;;;5067831;28;20358;-84
2022/08/24 03:12:43;;;;;;;5.88;2.30;;;18.30;99.90;;;;;;5065951;28;20082;-84
2022/08/24 03:15:10;;;;;;;2.35;1.90;;;18.10;99.90;;;;;;5058458;28;20030;-84
2022/08/24 03:17:37;;;;;;;4.22;2.47;;;18.10;99.90;;;;;;5067951;28;20050;-84
2022/08/24 03:20:05;;;;;;;6.00;2.58;;;18.00;99.90;;;;;;5061134;28;20028;-84
2022/08/24 03:22:32;;;;;;;5.00;3.30;;;17.90;99.90;;;;;;5061482;28;20139;-84
2022/08/24 03:24:57;;;;;;;6.53;2.67;;;17.90;99.90;;;;;;5066638;28;20032;-84
2022/08/24 03:27:23;;;;;;;4.20;2.78;;;17.70;99.90;;;;;;5062142;28;20021;-84
2022/08/24 03:29:48;;;;;;;8.43;2.72;;;17.70;99.90;;;;;;5067175;28;20480;-84
2022/08/24 03:32:14;;;;;;;4.80;2.40;;;17.60;99.90;;;;;;5055869;28;20044;-83
2022/08/24 03:34:39;;;;;;;3.05;2.33;;;17.50;99.90;;;;;;5059831;28;20244;-83
2022/08/24 03:37:05;;;;;;;3.85;2.70;;;17.50;99.90;;;;;;5061175;28;20020;-83
2022/08/24 03:39:31;;;;;;;4.72;2.78;;;17.40;99.90;;;;;;5069162;28;20028;-83
2022/08/24 03:41:56;;;;;;;7.63;2.90;;;17.40;99.90;;;;;;5066570;28;20032;-83
2022/08/24 03:44:24;;;;;;;4.97;2.83;;;17.40;99.90;;;;;;5049504;28;20039;-83
2022/08/24 03:46:51;;;;;;;4.50;2.70;;;17.30;99.90;;;;;;5057882;28;20079;-83
2022/08/24 03:49:17;;;;;;;4.95;2.78;;;17.20;99.90;;;;;;5066570;28;20021;-83
2022/08/24 03:51:43;;;;;;;4.10;2.80;;;17.20;99.90;;;;;;5058068;28;20056;-83
2022/08/24 03:54:09;;;;;;;5.07;2.88;;;17.10;99.90;;;;;;5066147;28;20757;-83
2022/08/24 03:56:35;;;;;;;3.88;2.45;;;17.00;99.90;;;;;;5060382;28;20059;-83
2022/08/24 03:59:01;;;;;;;6.13;3.20;;;17.10;99.90;;;;;;5060649;28;20068;-83
2022/08/24 04:01:26;;;;;;;7.63;3.10;;;17.00;99.90;;;;;;5061283;28;20111;-83
2022/08/24 04:03:53;;;;;;;4.50;2.72;;;16.90;99.90;;;;;;5065463;28;20052;-83
2022/08/24 04:06:19;;;;;;;4.75;3.22;;;16.90;99.90;;;;;;5063589;28;20023;-83
2022/08/24 04:08:46;;;;;;;4.82;3.15;;;16.90;99.90;;;;;;5063524;28;20045;-83
2022/08/24 04:11:14;;;;;;;6.65;3.67;;;16.80;99.90;;;;;;5061390;28;20031;-83
2022/08/24 04:13:40;;;;;;;5.18;3.20;;;16.70;99.90;;;;;;5064663;28;20119;-83
2022/08/24 04:16:08;;;;;;;5.25;3.08;;;16.70;99.90;;;;;;5067261;28;20111;-82
2022/08/24 04:18:34;;;;;;;4.68;2.80;;;16.60;99.90;;;;;;5065234;28;20047;-83
2022/08/24 04:21:00;;;;;;;5.45;2.65;;;16.60;99.90;;;;;;5063379;28;20119;-83
2022/08/24 04:23:26;;;;;;;5.68;3.10;;;16.60;99.90;;;;;;5061226;28;20459;-83
2022/08/24 04:25:51;;;;;;;4.65;2.50;;;16.60;99.90;;;;;;5067443;28;20024;-83
2022/08/24 04:28:20;;;;;;;6.53;3.00;;;16.60;99.90;;;;;;5065402;28;20032;-83
2022/08/24 04:30:50;;;;;;;5.43;3.33;;;16.60;99.90;;;;;;5061703;28;20353;-83
2022/08/24 04:33:17;;;;;;;6.38;3.08;;;16.60;99.90;;;;;;5066843;28;20029;-83
2022/08/24 04:35:46;;;;;;;3.08;2.75;;;16.60;99.90;;;;;;5064878;28;20560;-83
2022/08/24 04:38:13;;;;;;;6.00;3.17;;;16.50;99.90;;;;;;5064497;28;20037;-83
2022/08/24 04:40:43;;;;;;;4.70;3.38;;;16.60;99.90;;;;;;5060183;28;20032;-83
2022/08/24 04:43:09;;;;;;;3.38;3.00;;;16.60;99.90;;;;;;5059927;28;20112;-83
2022/08/24 04:45:39;;;;;;;2.85;2.58;;;16.60;99.90;;;;;;5066977;28;20104;-83
2022/08/24 04:48:05;;;;;;;2.65;2.38;;;16.60;99.90;;;;;;5062071;28;20488;-83
2022/08/24 04:50:35;;;;;;;6.70;3.35;;;16.60;99.90;;;;;;5061201;28;20060;-83
2022/08/24 04:53:02;;;;;;;4.25;2.90;;;16.70;99.90;;;;;;5063324;28;20029;-83
2022/08/24 04:55:27;;;;;;;4.35;2.88;;;16.70;99.90;;;;;;5061021;28;20031;-83
2022/08/24 04:57:53;;;;;;;3.40;2.70;;;16.70;99.90;;;;;;5060958;28;20040;-83
2022/08/24 05:00:19;;;;;;;5.47;3.00;;;16.70;99.90;;;;;;5058837;28;20052;-83
2022/08/24 05:02:44;;;;;;;9.25;4.65;;;16.70;99.90;;;;;;5062540;28;20380;-83
2022/08/24 05:05:10;;;;;;;12.82;4.13;;;16.70;99.90;;;;;;5061693;28;20029;-83
2022/08/24 05:07:36;;;;;;;5.38;3.45;;;16.60;99.90;;;;;;5066240;28;20027;-83
2022/08/24 05:10:03;;;;;;;7.60;3.70;;;16.50;99.90;;;;;;5064164;28;20033;-83
2022/08/24 05:12:29;;;;;;;8.75;4.10;;;16.50;99.90;;;;;;5063983;28;20035;-83
2022/08/24 05:14:54;;;;;;;7.70;3.33;;;16.50;99.90;;;;;;5065760;28;20021;-84
2022/08/24 05:17:20;;;;;;;7.78;4.00;;;16.50;99.90;;;;;;5062606;28;20067;-83
2022/08/24 05:19:46;;;;;;;3.50;3.20;;;16.60;99.90;;;;;;5068252;28;20070;-83
2022/08/24 05:22:11;;;;;;;8.57;4.28;;;16.60;99.90;;;;;;5059002;28;20021;-83
2022/08/24 05:24:37;;;;;;;4.25;3.03;;;16.70;99.90;;;;;;5067914;28;20016;-83
2022/08/24 05:27:02;;;;;;;8.10;3.80;;;16.70;99.90;;;;;;5060152;28;20033;-84
2022/08/24 05:29:32;;;;;;;3.20;2.83;;;16.70;99.90;;;;;;5064485;28;20020;-83
2022/08/24 05:31:58;;;;;;;3.63;2.67;;;16.70;99.90;;;;;;5056535;28;20025;-83
2022/08/24 05:34:24;;;;;;;7.90;4.10;;;16.90;99.90;;;;;;5066737;28;20036;-83
2022/08/24 05:36:49;;;;;;;3.17;2.85;;;16.90;99.90;;;;;;5064040;28;20079;-83
2022/08/24 05:39:15;;;;;;;4.13;3.13;;;17.00;99.90;;;;;;5065177;28;20029;-83
2022/08/24 05:41:42;;;;;;;5.63;3.35;;;17.10;99.90;;;;;;5046999;28;20423;-84
2022/08/24 05:44:09;;;;;;;9.05;4.00;;;17.20;99.90;;;;;;5062026;28;20043;-83
2022/08/24 05:46:34;;;;;;;6.35;3.33;;;17.30;99.90;;;;;;5058969;28;20025;-83
2022/08/24 05:49:00;;;;;;;6.68;3.15;;;17.40;99.90;;;;;;5062856;28;20035;-83
2022/08/24 05:51:28;;;;;;;8.05;3.63;;;17.40;99.90;;;;;;5063675;28;20495;-83
2022/08/24 05:53:55;;;;;;;4.75;3.08;;;17.50;99.90;;;;;;5061733;28;20104;-83
2022/08/24 05:56:20;;;;;;;4.72;2.88;;;17.60;99.90;;;;;;5064510;28;20032;-84
2022/08/24 05:58:46;;;;;;;6.40;2.95;;;17.70;99.90;;;;;;5070194;28;20037;-83
2022/08/24 06:01:17;;;;;;;5.45;3.20;;;17.80;99.90;;;;;;5069971;28;20082;-83
2022/08/24 06:03:43;;;;;;;5.00;2.75;;;17.90;99.90;;;;;;5068908;28;20553;-83
2022/08/24 06:06:10;;;;;;;5.57;2.88;;;18.00;99.90;;;;;;5069226;28;20074;-83
2022/08/24 06:08:37;;;;;;;8.20;3.08;;;18.00;99.90;;;;;;5046956;28;20029;-83
2022/08/24 06:11:03;;;;;;;5.32;2.83;;;18.10;99.90;;;;;;5065168;28;20115;-83
2022/08/24 06:13:30;;;;;;;5.05;2.60;;;18.20;99.90;;;;;;5066931;28;20036;-84
2022/08/24 06:16:08;;;;;;;6.13;2.90;;;18.20;99.90;;;;;;5047263;28;20075;-83
2022/08/24 06:18:35;;;;;;;6.80;3.22;;;18.30;99.90;;;;;;5063387;28;20467;-83
2022/08/24 06:21:10;;;;;;;5.13;2.92;;;18.40;99.90;;;;;;5068742;28;20024;-83
2022/08/24 06:23:36;;;;;;;5.80;2.75;;;18.40;99.90;;;;;;5066887;28;20103;-84
2022/08/24 06:28:48;;;;;;;10.70;4.88;;;18.50;99.90;;;;;;5064060;28;20036;-84
2022/08/24 06:31:14;;;;;;;6.70;4.18;;;18.60;99.90;;;;;;5064851;28;20048;-84
2022/08/24 06:33:44;;;;;;;11.57;3.75;;;18.70;99.90;;;;;;5060220;28;20097;-83
2022/08/24 06:36:09;;;;;;;7.60;4.50;;;18.70;99.90;;;;;;5068281;28;20107;-83
2022/08/24 06:38:36;;;;;;;8.05;3.95;;;18.80;99.90;;;;;;5060008;28;20108;-84
2022/08/24 06:41:02;;;;;;;4.43;3.47;;;18.90;99.90;;;;;;5066253;28;20484;-84
2022/08/24 06:43:27;;;;;;;12.65;3.95;;;18.90;99.90;;;;;;5067365;28;20046;-84
2022/08/24 06:45:55;;;;;;;9.75;4.93;;;18.90;99.90;;;;;;5067569;28;20028;-84
2022/08/24 06:48:20;;;;;;;6.63;4.25;;;19.00;99.90;;;;;;5066682;28;20048;-84
2022/08/24 06:50:46;;;;;;;15.77;5.13;;;19.00;99.90;;;;;;5063367;28;20491;-84
2022/08/24 06:53:13;;;;;;;12.40;4.00;;;19.10;99.90;;;;;;5066003;28;20373;-84
2022/08/24 06:55:59;;;;;;;12.57;3.72;;;19.10;99.90;;;;;;5066903;28;20044;-84
2022/08/24 06:58:27;;;;;;;8.48;4.00;;;19.20;99.90;;;;;;5067940;28;20052;-85
2022/08/24 07:00:54;;;;;;;7.93;3.05;;;19.30;99.90;;;;;;5066062;28;20052;-85
2022/08/24 07:03:21;;;;;;;18.45;3.35;;;19.30;99.90;;;;;;5063527;28;20063;-84
2022/08/24 07:05:51;;;;;;;12.10;3.38;;;19.40;99.90;;;;;;5064431;28;20024;-84
2022/08/24 07:08:18;;;;;;;4.70;2.67;;;19.50;99.90;;;;;;5062797;28;20037;-84
2022/08/24 07:10:43;;;;;;;10.60;3.35;;;19.50;99.90;;;;;;5065457;28;20114;-84
2022/08/24 07:13:10;;;;;;;11.93;3.35;;;19.60;99.90;;;;;;5063066;28;20445;-84
2022/08/24 07:15:35;;;;;;;12.80;3.58;;;19.70;99.90;;;;;;5066770;28;20025;-85
2022/08/24 07:18:01;;;;;;;13.35;3.35;;;19.80;99.90;;;;;;5061340;28;20040;-85
2022/08/24 07:20:29;;;;;;;9.15;3.42;;;19.90;99.90;;;;;;5067878;28;20085;-85
2022/08/24 07:22:55;;;;;;;12.40;3.30;;;20.00;99.90;;;;;;5062804;28;20025;-85
2022/08/24 07:25:20;;;;;;;5.95;2.95;;;20.00;99.90;;;;;;5066027;28;20362;-86
2022/08/24 07:27:46;;;;;;;13.23;3.10;;;20.20;99.90;;;;;;5067982;28;20036;-84
2022/08/24 07:30:12;;;;;;;14.02;3.45;;;20.20;99.90;;;;;;5065483;28;20043;-84
2022/08/24 07:32:38;;;;;;;6.82;2.95;;;20.30;99.90;;;;;;5060611;28;20028;-84
2022/08/24 07:35:04;;;;;;;11.18;3.83;;;20.40;99.90;;;;;;5067010;28;20035;-85
2022/08/24 07:37:30;;;;;;;7.53;3.53;;;20.50;99.90;;;;;;5062789;28;20391;-85
2022/08/24 07:39:55;;;;;;;6.57;3.60;;;20.60;99.90;;;;;;5066011;28;20044;-84
2022/08/24 07:42:23;;;;;;;8.50;4.03;;;20.60;99.90;;;;;;5064601;28;20021;-85
2022/08/24 07:44:50;;;;;;;6.07;3.30;;;20.70;99.90;;;;;;5068659;28;20058;-84
2022/08/24 07:47:16;;;;;;;9.10;3.72;;;20.80;99.90;;;;;;5065445;28;20021;-83
2022/08/24 07:49:41;;;;;;;7.53;3.60;;;20.90;99.90;;;;;;5067491;28;20392;-84
2022/08/24 07:52:09;;;;;;;6.97;3.30;;;21.00;99.90;;;;;;5068690;28;20053;-86
2022/08/24 07:54:35;;;;;;;6.40;3.22;;;21.00;99.90;;;;;;5067447;28;20016;-85
2022/08/24 07:57:02;;;;;;;5.18;3.30;;;21.10;99.90;;;;;;5060651;28;20508;-85
2022/08/24 07:59:28;;;;;;;11.40;3.20;;;21.20;99.90;;;;;;5065394;28;20044;-85
2022/08/24 08:01:54;;;;;;;9.98;3.95;;;21.30;99.90;;;;;;5068950;28;20437;-85
2022/08/24 08:04:23;;;;;;;5.50;2.80;;;21.40;99.90;;;;;;5065151;28;20043;-86
2022/08/24 08:06:49;;;;;;;11.20;3.15;;;21.40;99.90;;;;;;5065759;28;20032;-85
2022/08/24 08:09:15;;;;;;;12.57;3.78;;;21.50;99.90;;;;;;5061402;28;20082;-86
2022/08/24 08:11:40;;;;;;;7.22;2.90;;;21.60;99.90;;;;;;5065364;28;20039;-87
2022/08/24 08:14:06;;;;;;;8.57;3.45;;;21.60;99.90;;;;;;5063544;28;20032;-84
2022/08/24 08:16:32;;;;;;;7.00;2.80;;;21.70;99.90;;;;;;5063720;28;20035;-85
2022/08/24 08:18:57;;;;;;;12.48;2.50;;;21.80;99.90;;;;;;5065867;28;20028;-86
2022/08/24 08:24:19;;;;;;;6.05;2.55;;;21.90;99.90;;;;;;5061228;28;20027;-85
2022/08/24 08:26:49;;;;;;;7.00;2.63;;;21.90;99.90;;;;;;5068468;28;20469;-85
2022/08/24 08:29:15;;;;;;;4.90;2.15;;;22.00;99.90;;;;;;5065703;28;20032;-85
2022/08/24 08:31:54;;;;;;;7.30;2.65;;;22.00;99.90;;;;;;5062724;28;20040;-85
2022/08/24 08:34:20;;;;;;;5.68;2.50;;;22.20;99.90;;;;;;5061181;28;20107;-85
2022/08/24 08:36:46;;;;;;;10.13;2.80;;;22.20;99.90;;;;;;5058893;28;20178;-83
2022/08/24 08:39:14;;;;;;;5.35;2.42;;;22.30;99.90;;;;;;5064301;28;20039;-86
2022/08/24 08:42:15;;;;;;;8.88;2.72;;;22.30;99.90;;;;;;5060848;28;20025;-85
2022/08/24 08:44:43;;;;;;;5.97;2.80;;;22.40;99.90;;;;;;5061531;28;20037;-84
2022/08/24 08:47:45;;;;;;;7.60;2.70;;;22.40;99.90;;;;;;5043661;28;20887;-87
2022/08/24 08:50:20;;;;;;;4.93;2.97;;;22.40;99.90;;;;;;5064280;28;20037;-88
2022/08/24 08:53:21;;;;;;;5.38;3.22;;;22.50;99.90;;;;;;5064974;28;20052;-85
2022/08/24 08:56:10;;;;;;;4.60;2.67;;;22.50;99.90;;;;;;5065243;28;20159;-88
2022/08/24 08:59:00;;;;;;;5.88;2.40;;;22.50;99.90;;;;;;5066132;28;20033;-85
2022/08/24 09:02:14;;;;;;;3.28;2.15;;;22.60;99.90;;;;;;5064608;28;20021;-86
2022/08/24 09:05:12;;;;;;;7.85;2.88;;;22.60;99.90;;;;;;5000652;28;20385;-85
2022/08/24 09:08:07;;;;;;;5.15;2.47;;;22.70;99.90;;;;;;5063875;28;20345;-85
2022/08/24 09:10:48;;;;;;;3.78;2.63;;;22.70;99.90;;;;;;5061461;28;20029;-86
2022/08/24 09:13:50;;;;;;;3.97;2.33;;;22.80;99.90;;;;;;5058762;28;20032;-85
2022/08/24 09:16:16;;;;;;;6.13;2.40;;;22.90;99.90;;;;;;5065153;28;20029;-87
2022/08/24 09:18:48;;;;;;;5.05;2.40;;;23.00;99.90;;;;;;5063948;28;20045;-88
2022/08/24 09:21:34;;;;;;;8.35;2.60;;;23.00;99.90;;;;;;5067629;28;20516;-87
2022/08/24 09:24:20;;;;;;;8.68;3.08;;;23.10;99.90;;;;;;5008462;28;20061;-90
2022/08/24 09:27:21;;;;;;;8.20;2.28;;;23.20;99.90;;;;;;5061162;28;20120;-88
2022/08/24 09:30:05;;;;;;;6.47;2.65;;;23.20;99.90;;;;;;5050253;28;20040;-89
2022/08/24 09:32:50;;;;;;;6.10;2.17;;;23.30;99.90;;;;;;5062459;28;20103;-87
2022/08/24 09:35:32;;;;;;;8.95;2.22;;;23.30;99.90;;;;;;5067506;28;20060;-85
2022/08/24 09:38:09;;;;;;;8.07;2.50;;;23.40;99.90;;;;;;5067555;28;20039;-88
2022/08/24 09:40:36;;;;;;;4.60;2.13;;;23.50;99.90;;;;;;5071606;28;20032;-84
2022/08/24 09:43:13;;;;;;;7.45;2.55;;;23.50;99.90;;;;;;5070517;28;20020;-90
2022/08/24 09:46:16;;;;;;;9.38;3.35;;;23.50;99.90;;;;;;5068676;28;20537;-91
2022/08/24 09:49:11;;;;;;;6.00;2.50;;;23.60;99.90;;;;;;5066077;28;20036;-89
2022/08/24 09:52:08;;;;;;;5.07;2.75;;;23.70;99.90;;;;;;5068122;28;20507;-95
2022/08/24 09:54:48;;;;;;;;;;;23.70;99.90;;;;;;5070042;28;20028;-94
2022/08/24 09:57:35;;;;;;;8.15;3.15;;;23.70;99.90;;;;;;5071406;28;20268;-93
2022/08/24 10:00:17;;;;;;;12.45;2.90;;;23.70;99.90;;;;;;5060021;28;20078;-91
2022/08/24 10:03:04;;;;;;;5.28;2.88;;;23.90;99.90;;;;;;5063173;28;20037;-88
2022/08/24 10:05:57;;;;;;;11.82;2.13;;;23.90;99.90;;;;;;5065981;28;20063;-94
2022/08/24 10:08:38;;;;;;;5.32;2.60;;;23.90;99.90;;;;;;5061482;28;20032;-93
2022/08/24 10:11:37;;;;;;;10.93;2.90;;;24.00;99.90;;;;;;5070074;28;20075;-87
2022/08/24 10:14:24;;;;;;;6.57;2.95;;;24.10;99.90;;;;;;5068433;28;20094;-90
2022/08/24 10:17:10;;;;;;;4.72;2.35;;;24.10;99.90;;;;;;5061765;28;20028;-90
2022/08/24 10:20:24;;;;;;;6.30;2.00;;;24.20;99.90;;;;;;5071251;28;20029;-90
2022/08/24 10:23:27;;;;;;;10.63;2.65;;;24.20;99.90;;;;;;5041412;28;20040;-90
2022/08/24 10:26:08;;;;;;;11.90;2.60;;;24.30;99.90;;;;;;5063237;28;20032;-91
2022/08/24 10:29:08;;;;;;;5.07;2.13;;;24.40;99.90;;;;;;5067449;28;20539;-90
2022/08/24 10:32:01;;;;;;;7.22;2.47;;;24.40;99.90;;;;;;5061506;28;20044;-90
2022/08/24 10:35:00;;;;;;;13.52;2.67;;;24.40;99.90;;;;;;5065731;28;20032;-91
2022/08/24 10:39:39;;;;;;;5.03;2.05;;;24.40;99.90;;;;;;5067479;28;20037;-90
2022/08/24 10:41:02;;;;;;;7.70;2.45;;;24.50;99.90;;;;;;5061311;28;20108;-87
2022/08/24 10:43:56;;;;;;;7.97;2.25;;;24.60;99.90;;;;;;5067760;28;20485;-90
2022/08/24 10:46:37;;;;;;;7.15;2.55;;;24.60;99.90;;;;;;5067407;28;20077;-88
2022/08/24 10:49:16;;;;;;;7.05;2.10;;;24.60;99.90;;;;;;5062870;28;20036;-91
2022/08/24 10:52:15;;;;;;;6.88;2.60;;;24.60;99.90;;;;;;5064513;28;20070;-91
2022/08/24 10:54:41;;;;;;;5.40;1.67;;;24.70;99.60;;;;;;5065221;28;20552;-92
2022/08/24 10:57:37;;;;;;;9.85;2.10;;;24.70;97.70;;;;;;5069401;28;20112;-90
2022/08/24 11:00:13;;;;;;;4.63;2.03;;;24.70;96.20;;;;;;5067190;28;20115;-83
2022/08/24 11:02:41;;;;;;;6.60;2.20;;;24.80;96.00;;;;;;5066667;28;20044;-85
2022/08/24 11:05:10;;;;;;;4.43;1.90;;;24.90;94.90;;;;;;5067594;28;20031;-85
2022/08/24 11:07:36;;;;;;;11.38;2.03;;;24.90;96.10;;;;;;5064800;28;20021;-86
2022/08/24 11:10:08;;;;;;;4.50;2.15;;;25.00;93.70;;;;;;5059950;28;20912;-86
2022/08/24 11:12:41;;;;;;;4.70;2.30;;;25.00;92.70;;;;;;5064318;28;20060;-84
2022/08/24 11:15:15;;;;;;;6.85;1.73;;;25.10;90.80;;;;;;5064106;28;20091;-83
2022/08/24 11:18:02;;;;;;;4.47;1.77;;;25.10;87.40;;;;;;5064028;28;20408;-84
2022/08/24 11:20:38;;;;;;;4.07;1.58;;;25.10;85.80;;;;;;5059763;28;20043;-84
2022/08/24 11:23:27;;;;;;;10.80;2.40;;;25.20;87.50;;;;;;5065024;28;20020;-93
2022/08/24 11:26:10;;;;;;;9.23;2.08;;;25.30;75.30;;;;;;5063452;28;20103;-89
2022/08/24 11:28:39;;;;;;;6.22;2.10;;;25.20;77.50;;;;;;5064060;28;20054;-87
2022/08/24 11:31:14;;;;;;;5.75;1.70;;;25.30;78.10;;;;;;5046780;28;20493;-89
2022/08/24 11:33:56;;;;;;;3.60;1.63;;;25.30;77.20;;;;;;5057561;28;20224;-81
2022/08/24 11:36:26;;;;;;;8.57;2.65;;;25.30;77.90;;;;;;5065337;28;20286;-84
2022/08/24 11:39:12;;;;;;;10.95;1.95;;;25.40;78.80;;;;;;5060519;28;20128;-86
2022/08/24 11:41:55;;;;;;;6.70;1.70;;;25.40;80.60;;;;;;5056277;28;20023;-88
2022/08/24 11:44:33;;;;;;;5.07;1.88;;;25.40;75.50;;;;;;5066423;28;20091;-85
2022/08/24 11:47:15;;;;;;;6.15;2.42;;;25.40;75.70;;;;;;5064261;28;20028;-81
2022/08/24 11:49:52;;;;;;;6.63;2.00;;;25.50;74.20;;;;;;5058464;28;20453;-85
2022/08/24 11:52:20;;;;;;;5.95;1.90;;;25.50;74.70;;;;;;5058475;28;20024;-83
2022/08/24 11:55:01;;;;;;;10.75;1.92;;;25.50;72.90;;;;;;5061634;28;20028;-85
2022/08/24 11:57:45;;;;;;;3.97;1.80;;;25.60;71.10;;;;;;5063159;28;20044;-87
2022/08/24 12:00:17;;;;;;;7.72;2.58;;;25.70;71.90;;;;;;5068003;28;20047;-87
2022/08/24 12:03:04;;;;;;;7.50;2.13;;;25.70;68.50;;;;;;5059396;28;20036;-89
2022/08/24 12:05:36;;;;;;;7.47;1.67;;;25.70;67.30;;;;;;5062855;28;20033;-88
2022/08/24 12:08:21;;;;;;;8.63;1.77;;;25.80;64.80;;;;;;5063947;28;20476;-87
2022/08/24 12:10:55;;;;;;;10.32;1.73;;;25.80;62.90;;;;;;5064570;28;20029;-83
2022/08/24 12:13:34;;;;;;;5.50;1.75;;;25.90;65.10;;;;;;5061426;28;20109;-83
2022/08/24 12:16:28;;;;;;;6.80;1.95;;;25.90;61.70;;;;;;5060162;28;20541;-85
2022/08/24 12:19:02;;;;;;;5.90;2.03;;;26.00;65.80;;;;;;5069892;28;20261;-88
2022/08/24 12:21:32;;;;;;;7.18;1.80;;;26.00;61.40;;;;;;5065656;28;20063;-85
2022/08/24 12:24:07;;;;;;;8.45;1.83;;;26.00;62.90;;;;;;5060739;28;20036;-86
2022/08/24 12:26:40;;;;;;;6.05;1.98;;;26.10;64.00;;;;;;5062407;28;20150;-86
2022/08/24 12:29:11;;;;;;;10.82;2.10;;;26.20;62.70;;;;;;5063580;28;20123;-86
2022/08/24 12:31:48;;;;;;;5.40;1.85;;;26.20;60.80;;;;;;5053755;28;20113;-85
2022/08/24 12:34:23;;;;;;;6.35;1.77;;;26.20;62.30;;;;;;5064367;28;20033;-85
2022/08/24 12:36:51;;;;;;;5.28;2.08;;;26.30;62.40;;;;;;5064591;28;20022;-85
2022/08/24 12:39:28;;;;;;;4.22;1.42;;;26.30;59.10;;;;;;5063601;28;20154;-86
2022/08/24 12:42:27;;;;;;;9.75;1.98;;;26.40;58.00;;;;;;5060868;28;20120;-85
2022/08/24 12:45:01;;;;;;;5.15;2.00;;;26.40;57.30;;;;;;5062430;28;20045;-87
2022/08/24 12:47:55;;;;;;;5.20;1.75;;;26.50;58.50;;;;;;5064326;28;20548;-85
2022/08/24 12:50:47;;;;;;;8.30;1.60;;;26.50;56.30;;;;;;5062945;28;20024;-88
2022/08/24 12:53:24;;;;;;;6.53;2.28;;;26.60;54.90;;;;;;5065949;28;20042;-86
2022/08/24 12:56:34;;;;;;;7.70;1.83;;;26.60;55.20;;;;;;5064231;28;20051;-88
2022/08/24 12:59:21;;;;;;;5.55;1.65;;;26.60;54.10;;;;;;5066478;28;20131;-86
2022/08/24 13:02:01;;;;;;;9.95;1.70;;;26.60;53.80;;;;;;5065097;28;20025;-86
2022/08/24 13:04:27;;;;;;;2.47;1.45;;;26.70;55.30;;;;;;5065995;28;20030;-86
2022/08/24 13:07:19;;;;;;;5.85;1.95;;;26.70;54.10;;;;;;5063748;28;20037;-95
2022/08/24 13:09:47;;;;;;;11.57;1.83;;;26.70;54.60;;;;;;5063959;28;20054;-96
2022/08/24 13:12:42;;;;;;;7.93;2.13;;;26.70;54.60;;;;;;5044195;28;20033;-93
2022/08/24 13:15:22;;;;;;;6.30;1.90;;;26.70;55.20;;;;;;5062344;28;20063;-92
2022/08/24 13:18:07;;;;;;;7.68;2.17;;;26.70;56.80;;;;;;5067122;28;20051;-90
2022/08/24 13:20:35;;;;;;;4.75;1.73;;;26.80;57.00;;;;;;5063442;28;20063;-91